Time;durP1;ratioP1;P1;durP2;ratioP2;P2;SDS_P1;SDS_P2;PMS_P1;PMS_P2;Temp;Humidity;BMP_temperature;BMP_pressure;BME280_temperature;BME280_humidity;BME280_pressure;Samples;Min_cycle;Max_cycle;Signal;HPM_P1;HPM_P2
2023/04/03 00:01:09;;;;;;;0.55;0.47;;;;;;;;;;4898634;29;20186;-90
2023/04/03 00:03:37;;;;;;;3.88;1.42;;;;;;;;;;4896965;29;20080;-89
2023/04/03 00:06:06;;;;;;;1.40;0.98;;;;;;;;;;4907557;29;20104;-90
2023/04/03 00:08:35;;;;;;;1.55;1.45;;;;;;;;;;4906826;29;20077;-90
2023/04/03 00:11:03;;;;;;;2.05;1.35;;;;;;;;;;4897892;29;20080;-90
2023/04/03 00:13:31;;;;;;;0.88;0.88;;;;;;;;;;4893419;29;20063;-90
2023/04/03 00:16:03;;;;;;;2.35;1.15;;;;;;;;;;4902797;29;20541;-90
2023/04/03 00:18:31;;;;;;;1.88;1.05;;;;;;;;;;4894326;29;20132;-87
2023/04/03 00:21:00;;;;;;;1.00;0.70;;;;;;;;;;4896925;29;20052;-90
2023/04/03 00:23:28;;;;;;;0.52;0.50;;;;;;;;;;4888685;29;20091;-89
2023/04/03 00:25:57;;;;;;;5.28;1.52;;;;;;;;;;4889728;29;20131;-91
2023/04/03 00:28:26;;;;;;;0.73;0.70;;;;;;;;;;4892868;29;20068;-90
2023/04/03 00:30:55;;;;;;;0.75;0.68;;;;;;;;;;4899204;29;20100;-90
2023/04/03 00:33:24;;;;;;;1.20;1.10;;;;;;;;;;4897517;29;20193;-89
2023/04/03 00:35:53;;;;;;;0.65;0.65;;;;;;;;;;4898871;29;20105;-86
2023/04/03 00:38:22;;;;;;;0.98;0.90;;;;;;;;;;4889574;29;20052;-90
2023/04/03 00:40:50;;;;;;;1.17;0.80;;;;;;;;;;4896928;29;20052;-89
2023/04/03 00:43:19;;;;;;;8.20;1.17;;;;;;;;;;4901924;29;20116;-91
2023/04/03 00:45:49;;;;;;;0.90;0.88;;;;;;;;;;4894963;29;20075;-89
2023/04/03 00:48:20;;;;;;;3.28;1.15;;;;;;;;;;4895636;29;20060;-87
2023/04/03 00:50:50;;;;;;;0.95;0.47;;;;;;;;;;4897170;29;20135;-89
2023/04/03 00:53:20;;;;;;;1.77;1.25;;;;;;;;;;4897055;29;20068;-89
2023/04/03 00:55:49;;;;;;;1.88;0.70;;;;;;;;;;4893150;29;20132;-90
2023/04/03 00:58:19;;;;;;;2.25;1.10;;;;;;;;;;4896335;29;20057;-90
2023/04/03 01:00:49;;;;;;;2.30;0.82;;;;;;;;;;4898682;29;20418;-88
2023/04/03 01:03:17;;;;;;;1.33;1.00;;;;;;;;;;4910982;23;20608;-63
2023/04/03 01:05:46;;;;;;;1.02;0.88;;;;;;;;;;4925656;28;20078;-59
2023/04/03 01:08:16;;;;;;;2.50;1.38;;;;;;;;;;4933056;29;20058;-62
2023/04/03 01:10:44;;;;;;;2.80;1.60;;;;;;;;;;4933479;29;20069;-59
2023/04/03 01:13:20;;;;;;;1.15;1.08;;;;;;;;;;4931919;29;20060;-59
2023/04/03 01:15:49;;;;;;;3.35;1.45;;;;;;;;;;4928673;29;20040;-62
2023/04/03 01:18:17;;;;;;;2.13;1.52;;;;;;;;;;4914090;29;20152;-60
2023/04/03 01:21:10;;;;;;;0.57;0.57;;;;;;;;;;4913676;29;20055;-59
2023/04/03 01:23:51;;;;;;;4.60;1.80;;;;;;;;;;4912846;29;20135;-59
2023/04/03 01:26:19;;;;;;;0.40;0.40;;;;;;;;;;4913254;29;20355;-59
2023/04/03 01:28:48;;;;;;;2.05;1.90;;;;;;;;;;4911184;29;20052;-63
2023/04/03 01:31:20;;;;;;;4.25;1.15;;;;;;;;;;4904331;29;20418;-60
2023/04/03 01:33:50;;;;;;;0.80;0.73;;;;;;;;;;4907880;29;20502;-59
2023/04/03 01:36:20;;;;;;;1.58;1.08;;;;;;;;;;4903839;29;20139;-62
2023/04/03 01:38:49;;;;;;;5.55;0.80;;;;;;;;;;4911662;29;20067;-60
2023/04/03 01:41:17;;;;;;;1.40;0.65;;;;;;;;;;4906701;29;20058;-58
2023/04/03 01:43:45;;;;;;;0.75;0.75;;;;;;;;;;4907432;29;20164;-59
2023/04/03 01:46:14;;;;;;;1.67;1.00;;;;;;;;;;4907169;29;20063;-60
2023/04/03 01:48:42;;;;;;;1.02;0.90;;;;;;;;;;4913497;29;20447;-59
2023/04/03 01:51:12;;;;;;;6.30;1.25;;;;;;;;;;4913562;29;20100;-61
2023/04/03 01:53:40;;;;;;;0.93;0.70;;;;;;;;;;4912586;29;20143;-60
2023/04/03 01:56:09;;;;;;;2.78;1.30;;;;;;;;;;4912214;29;20048;-59
2023/04/03 01:58:38;;;;;;;1.33;0.80;;;;;;;;;;4911808;29;20075;-58
2023/04/03 02:01:06;;;;;;;1.15;0.52;;;;;;;;;;4913339;29;20063;-62
2023/04/03 02:03:35;;;;;;;1.95;0.88;;;;;;;;;;4910770;29;20083;-60
2023/04/03 02:06:03;;;;;;;1.15;1.05;;;;;;;;;;4913301;29;20493;-59
2023/04/03 02:08:33;;;;;;;1.95;0.68;;;;;;;;;;4907863;29;20055;-62
2023/04/03 02:11:02;;;;;;;1.80;0.80;;;;;;;;;;4906576;29;20056;-60
2023/04/03 02:13:30;;;;;;;1.20;0.50;;;;;;;;;;4910844;29;20052;-59
2023/04/03 02:15:58;;;;;;;1.70;1.13;;;;;;;;;;4910377;29;20052;-59
2023/04/03 02:18:27;;;;;;;1.73;1.45;;;;;;;;;;4913667;29;20055;-60
2023/04/03 02:20:55;;;;;;;2.20;1.35;;;;;;;;;;4913253;29;20135;-62
2023/04/03 02:23:24;;;;;;;1.00;0.90;;;;;;;;;;4911634;29;20115;-66
2023/04/03 02:25:53;;;;;;;1.30;0.47;;;;;;;;;;4913501;29;20054;-63
2023/04/03 02:28:22;;;;;;;0.80;0.80;;;;;;;;;;4911833;29;20051;-59
2023/04/03 02:30:50;;;;;;;3.45;1.42;;;;;;;;;;4912633;29;20676;-60
2023/04/03 02:33:18;;;;;;;2.08;0.80;;;;;;;;;;4910228;29;20099;-64
2023/04/03 02:35:52;;;;;;;0.77;0.32;;;;;;;;;;4906365;29;20072;-59
2023/04/03 02:38:21;;;;;;;1.30;0.80;;;;;;;;;;4912758;29;20059;-60
2023/04/03 02:40:50;;;;;;;0.65;0.35;;;;;;;;;;4902031;29;20056;-62
2023/04/03 02:43:20;;;;;;;1.58;0.88;;;;;;;;;;4911206;29;20052;-59
2023/04/03 02:45:48;;;;;;;1.33;0.80;;;;;;;;;;4912399;29;20413;-60
2023/04/03 02:48:17;;;;;;;1.17;0.70;;;;;;;;;;4912626;29;20414;-60
2023/04/03 02:50:45;;;;;;;5.13;1.48;;;;;;;;;;4912064;29;20062;-61
2023/04/03 02:53:13;;;;;;;0.75;0.75;;;;;;;;;;4911148;29;20187;-62
2023/04/03 02:55:42;;;;;;;0.80;0.60;;;;;;;;;;4912203;29;20054;-60
2023/04/03 02:58:10;;;;;;;0.32;0.28;;;;;;;;;;4910880;29;20410;-61
2023/04/03 03:00:40;;;;;;;1.33;0.95;;;;;;;;;;4912717;29;20123;-59
2023/04/03 03:03:08;;;;;;;1.10;0.47;;;;;;;;;;4910939;29;20629;-59
2023/04/03 03:05:37;;;;;;;2.20;0.80;;;;;;;;;;4912472;29;20082;-59
2023/04/03 03:08:05;;;;;;;1.02;0.75;;;;;;;;;;4911310;29;20060;-59
2023/04/03 03:10:33;;;;;;;0.55;0.55;;;;;;;;;;4911938;29;20047;-61
2023/04/03 03:13:02;;;;;;;0.75;0.52;;;;;;;;;;4909862;29;20071;-59
2023/04/03 03:15:30;;;;;;;0.73;0.47;;;;;;;;;;4912453;29;20561;-60
2023/04/03 03:18:00;;;;;;;3.58;1.33;;;;;;;;;;4911762;29;20056;-60
2023/04/03 03:20:28;;;;;;;0.25;0.25;;;;;;;;;;4911859;29;20055;-58
2023/04/03 03:22:57;;;;;;;0.65;0.65;;;;;;;;;;4911053;29;20044;-59
2023/04/03 03:25:25;;;;;;;1.20;1.10;;;;;;;;;;4912743;29;20581;-60
2023/04/03 03:27:53;;;;;;;1.13;0.60;;;;;;;;;;4909958;29;20480;-61
2023/04/03 03:30:22;;;;;;;0.77;0.77;;;;;;;;;;4912318;29;20048;-60
2023/04/03 03:32:50;;;;;;;0.28;0.28;;;;;;;;;;4911101;29;20048;-61
2023/04/03 03:35:20;;;;;;;0.47;0.47;;;;;;;;;;4911942;29;20500;-64
2023/04/03 03:37:48;;;;;;;1.38;0.63;;;;;;;;;;4911375;29;20405;-59
2023/04/03 03:40:17;;;;;;;1.60;0.80;;;;;;;;;;4912321;29;20044;-58
2023/04/03 03:42:45;;;;;;;1.00;0.70;;;;;;;;;;4909846;29;20267;-60
2023/04/03 03:45:13;;;;;;;0.98;0.73;;;;;;;;;;4904523;29;20044;-59
2023/04/03 03:47:42;;;;;;;0.95;0.65;;;;;;;;;;4910279;29;20135;-59
2023/04/03 03:50:10;;;;;;;6.25;0.75;;;;;;;;;;4903341;29;20120;-61
2023/04/03 03:52:40;;;;;;;3.13;0.68;;;;;;;;;;4910173;29;20048;-60
2023/04/03 03:55:09;;;;;;;1.20;1.13;;;;;;;;;;4907767;29;20051;-59
2023/04/03 03:57:37;;;;;;;0.65;0.65;;;;;;;;;;4909921;29;20067;-63
2023/04/03 04:00:06;;;;;;;0.88;0.88;;;;;;;;;;4910966;29;20052;-62
2023/04/03 04:02:35;;;;;;;0.85;0.70;;;;;;;;;;4911068;29;20044;-60
2023/04/03 04:05:04;;;;;;;0.63;0.57;;;;;;;;;;4911383;29;20285;-59
2023/04/03 04:07:32;;;;;;;1.17;0.80;;;;;;;;;;4911639;29;20059;-61
2023/04/03 04:10:02;;;;;;;0.10;0.10;;;;;;;;;;4911711;29;20052;-61
2023/04/03 04:12:30;;;;;;;0.77;0.73;;;;;;;;;;4912033;29;20394;-60
2023/04/03 04:14:59;;;;;;;0.57;0.52;;;;;;;;;;4910820;29;20083;-60
2023/04/03 04:17:27;;;;;;;2.15;0.98;;;;;;;;;;4911038;29;20557;-59
2023/04/03 04:19:56;;;;;;;0.50;0.43;;;;;;;;;;4911826;29;20103;-60
2023/04/03 04:22:24;;;;;;;1.15;0.95;;;;;;;;;;4912459;29;20330;-62
2023/04/03 04:24:52;;;;;;;1.30;0.70;;;;;;;;;;4913792;29;20058;-59
2023/04/03 04:27:22;;;;;;;0.47;0.28;;;;;;;;;;4914889;29;20094;-62
2023/04/03 04:29:50;;;;;;;0.47;0.47;;;;;;;;;;4912855;29;20453;-61
2023/04/03 04:32:19;;;;;;;0.22;0.22;;;;;;;;;;4914054;29;20048;-59
2023/04/03 04:34:47;;;;;;;0.43;0.43;;;;;;;;;;4915281;29;20075;-60
2023/04/03 04:37:16;;;;;;;0.55;0.55;;;;;;;;;;4914573;29;20301;-60
2023/04/03 04:39:44;;;;;;;0.52;0.52;;;;;;;;;;4909058;29;20132;-60
2023/04/03 04:42:14;;;;;;;0.80;0.65;;;;;;;;;;4910116;29;20494;-60
2023/04/03 04:44:46;;;;;;;3.03;1.15;;;;;;;;;;4914778;29;20052;-61
2023/04/03 04:47:14;;;;;;;1.75;1.02;;;;;;;;;;4914329;29;20502;-62
2023/04/03 04:49:43;;;;;;;0.63;0.63;;;;;;;;;;4914496;29;20072;-60
2023/04/03 04:52:11;;;;;;;1.08;0.55;;;;;;;;;;4914739;29;20094;-59
2023/04/03 04:54:40;;;;;;;1.00;1.00;;;;;;;;;;4914703;29;20131;-59
2023/04/03 04:57:08;;;;;;;0.45;0.45;;;;;;;;;;4912447;29;20048;-60
2023/04/03 04:59:36;;;;;;;2.50;1.02;;;;;;;;;;4913617;29;20119;-59
2023/04/03 05:02:06;;;;;;;1.85;0.70;;;;;;;;;;4914884;29;20139;-59
2023/04/03 05:04:34;;;;;;;4.32;0.70;;;;;;;;;;4914624;29;20198;-60
2023/04/03 05:07:03;;;;;;;0.35;0.35;;;;;;;;;;4911680;29;20052;-60
2023/04/03 05:09:31;;;;;;;0.65;0.47;;;;;;;;;;4914596;29;20056;-59
2023/04/03 05:12:00;;;;;;;1.08;0.70;;;;;;;;;;4910934;29;20052;-60
2023/04/03 05:14:28;;;;;;;0.40;0.40;;;;;;;;;;4908113;29;20217;-60
2023/04/03 05:16:57;;;;;;;1.13;0.68;;;;;;;;;;4911206;29;20056;-59
2023/04/03 05:19:27;;;;;;;0.30;0.30;;;;;;;;;;4908939;29;20147;-60
2023/04/03 05:21:55;;;;;;;1.35;0.90;;;;;;;;;;4911531;29;20577;-62
2023/04/03 05:24:24;;;;;;;1.10;0.85;;;;;;;;;;4910652;29;20091;-64
2023/04/03 05:26:53;;;;;;;1.80;0.60;;;;;;;;;;4908394;29;20127;-63
2023/04/03 05:29:21;;;;;;;0.45;0.45;;;;;;;;;;4910324;29;20091;-62
2023/04/03 05:31:50;;;;;;;1.75;0.98;;;;;;;;;;4899828;29;20056;-65
2023/04/03 05:34:19;;;;;;;1.42;0.70;;;;;;;;;;4908720;29;20548;-65
2023/04/03 05:36:48;;;;;;;0.90;0.82;;;;;;;;;;4899905;29;20500;-62
2023/04/03 05:39:17;;;;;;;1.02;0.93;;;;;;;;;;4903678;29;20143;-60
2023/04/03 05:41:45;;;;;;;0.57;0.55;;;;;;;;;;4913337;29;22420;-60
2023/04/03 05:44:14;;;;;;;1.27;0.57;;;;;;;;;;4909925;29;20131;-59
2023/04/03 05:46:42;;;;;;;0.55;0.50;;;;;;;;;;4913761;29;20087;-60
2023/04/03 05:49:11;;;;;;;1.70;1.33;;;;;;;;;;4911721;29;22666;-60
2023/04/03 05:51:40;;;;;;;0.47;0.47;;;;;;;;;;4910954;29;20068;-60
2023/04/03 05:54:13;;;;;;;1.35;0.80;;;;;;;;;;4914176;29;20139;-60
2023/04/03 05:56:41;;;;;;;2.33;0.93;;;;;;;;;;4912637;29;20083;-63
2023/04/03 05:59:10;;;;;;;0.57;0.57;;;;;;;;;;4905423;29;20056;-61
2023/04/03 06:01:38;;;;;;;0.55;0.55;;;;;;;;;;4913949;29;20121;-63
2023/04/03 06:04:08;;;;;;;0.88;0.88;;;;;;;;;;4914181;29;20511;-60
2023/04/03 06:06:47;;;;;;;0.90;0.85;;;;;;;;;;4912267;29;20053;-60
2023/04/03 06:09:17;;;;;;;0.77;0.68;;;;;;;;;;4907109;29;20568;-60
2023/04/03 06:11:46;;;;;;;0.50;0.50;;;;;;;;;;4912967;29;20067;-62
2023/04/03 06:14:14;;;;;;;1.48;0.70;;;;;;;;;;4911979;29;20058;-62
2023/04/03 06:16:43;;;;;;;1.13;0.90;;;;;;;;;;4913209;29;20107;-59
2023/04/03 06:19:13;;;;;;;4.13;0.82;;;;;;;;;;4913816;29;20109;-59
2023/04/03 06:21:41;;;;;;;0.40;0.40;;;;;;;;;;4913742;29;20086;-59
2023/04/03 06:24:11;;;;;;;1.02;0.57;;;;;;;;;;4912342;29;20054;-60
2023/04/03 06:26:40;;;;;;;0.75;0.75;;;;;;;;;;4905724;29;20064;-59
2023/04/03 06:29:09;;;;;;;1.95;0.88;;;;;;;;;;4910440;29;20135;-60
2023/04/03 06:31:37;;;;;;;0.80;0.77;;;;;;;;;;4913543;29;20143;-60
2023/04/03 06:34:07;;;;;;;1.92;1.23;;;;;;;;;;4901385;29;20576;-59
2023/04/03 06:36:37;;;;;;;2.15;0.95;;;;;;;;;;4911058;29;20459;-60
2023/04/03 06:39:05;;;;;;;1.90;1.40;;;;;;;;;;4909401;29;20135;-60
2023/04/03 06:41:34;;;;;;;2.65;1.20;;;;;;;;;;4912050;29;20127;-60
2023/04/03 06:44:06;;;;;;;0.77;0.77;;;;;;;;;;4913726;29;20052;-60
2023/04/03 06:46:34;;;;;;;0.55;0.55;;;;;;;;;;4910202;29;20040;-60
2023/04/03 06:49:03;;;;;;;0.45;0.45;;;;;;;;;;4913564;29;20139;-65
2023/04/03 06:51:31;;;;;;;2.05;1.15;;;;;;;;;;4913511;29;20139;-65
2023/04/03 06:54:00;;;;;;;2.58;1.15;;;;;;;;;;4913391;29;20413;-60
2023/04/03 06:56:29;;;;;;;1.85;0.98;;;;;;;;;;4911214;29;20063;-65
2023/04/03 06:58:58;;;;;;;10.35;0.95;;;;;;;;;;4913565;29;20994;-59
2023/04/03 07:01:28;;;;;;;0.73;0.57;;;;;;;;;;4913013;29;20131;-60
2023/04/03 07:03:57;;;;;;;2.78;1.33;;;;;;;;;;4911565;29;20399;-60
2023/04/03 07:06:27;;;;;;;1.08;0.80;;;;;;;;;;4912225;29;20048;-61
2023/04/03 07:08:56;;;;;;;0.85;0.85;;;;;;;;;;4913748;29;20078;-60
2023/04/03 07:11:25;;;;;;;2.85;1.33;;;;;;;;;;4899080;29;20135;-60
2023/04/03 07:13:56;;;;;;;1.15;0.88;;;;;;;;;;4912994;29;20056;-61
2023/04/03 07:16:24;;;;;;;8.65;0.90;;;;;;;;;;4918549;29;20047;-59
2023/04/03 07:18:54;;;;;;;1.63;0.95;;;;;;;;;;4931864;29;20055;-60
2023/04/03 07:21:23;;;;;;;2.03;1.00;;;;;;;;;;4930689;29;20075;-61
2023/04/03 07:23:51;;;;;;;2.45;1.00;;;;;;;;;;4931960;29;20135;-60
2023/04/03 07:26:21;;;;;;;0.52;0.52;;;;;;;;;;4930087;29;20058;-59
2023/04/03 07:28:49;;;;;;;1.55;0.85;;;;;;;;;;4931667;29;20134;-59
2023/04/03 07:31:18;;;;;;;1.20;1.10;;;;;;;;;;4931472;29;20048;-63
2023/04/03 07:33:47;;;;;;;4.95;1.73;;;;;;;;;;4931918;29;20059;-59
2023/04/03 07:36:18;;;;;;;1.60;0.88;;;;;;;;;;4931133;29;20392;-60
2023/04/03 07:38:47;;;;;;;1.55;0.90;;;;;;;;;;4927686;29;20044;-61
2023/04/03 07:41:17;;;;;;;0.90;0.88;;;;;;;;;;4930253;29;20127;-61
2023/04/03 07:43:46;;;;;;;2.78;1.25;;;;;;;;;;4931938;29;20043;-61
2023/04/03 07:46:14;;;;;;;1.08;0.80;;;;;;;;;;4931583;29;20048;-59
2023/04/03 07:48:43;;;;;;;2.10;1.30;;;;;;;;;;4932051;29;20055;-59
2023/04/03 07:51:11;;;;;;;0.93;0.47;;;;;;;;;;4930753;29;20420;-59
2023/04/03 07:53:41;;;;;;;1.00;0.93;;;;;;;;;;4931534;29;20510;-62
2023/04/03 07:56:10;;;;;;;1.30;0.73;;;;;;;;;;4929942;28;22674;-59
2023/04/03 07:58:38;;;;;;;2.25;1.00;;;;;;;;;;4934440;29;20640;-60
2023/04/03 08:01:07;;;;;;;1.88;0.98;;;;;;;;;;4934586;29;21140;-59
2023/04/03 08:03:35;;;;;;;2.08;0.73;;;;;;;;;;4935229;29;20059;-59
2023/04/03 08:06:05;;;;;;;1.42;1.33;;;;;;;;;;4933521;29;20054;-60
2023/04/03 08:08:39;;;;;;;2.55;2.03;;;;;;;;;;4934764;29;20136;-60
2023/04/03 08:11:09;;;;;;;0.95;0.85;;;;;;;;;;4934563;29;20075;-59
2023/04/03 08:13:37;;;;;;;7.20;1.38;;;;;;;;;;4935485;29;20087;-61
2023/04/03 08:16:09;;;;;;;1.45;1.10;;;;;;;;;;4934499;29;20524;-60
2023/04/03 08:18:38;;;;;;;1.90;1.38;;;;;;;;;;4934842;29;20048;-60
2023/04/03 08:21:08;;;;;;;1.15;0.88;;;;;;;;;;4934557;29;20058;-61
2023/04/03 08:23:36;;;;;;;6.25;1.27;;;;;;;;;;4934715;29;20044;-60
2023/04/03 08:26:10;;;;;;;1.30;1.20;;;;;;;;;;4934926;29;20044;-60
2023/04/03 08:28:39;;;;;;;1.13;1.02;;;;;;;;;;4931692;29;20135;-59
2023/04/03 08:31:10;;;;;;;2.17;1.13;;;;;;;;;;4933146;29;20062;-66
2023/04/03 08:33:40;;;;;;;11.55;1.33;;;;;;;;;;4933845;29;20056;-59
2023/04/03 08:36:16;;;;;;;4.30;1.63;;;;;;;;;;4930322;28;20115;-61
2023/04/03 08:38:44;;;;;;;2.67;0.90;;;;;;;;;;4908412;29;20051;-59
2023/04/03 08:41:16;;;;;;;1.27;1.10;;;;;;;;;;4915038;29;20048;-59
2023/04/03 08:43:53;;;;;;;2.17;1.13;;;;;;;;;;4914354;29;20052;-59
2023/04/03 08:46:24;;;;;;;1.38;1.25;;;;;;;;;;4914922;29;20485;-60
2023/04/03 08:48:52;;;;;;;1.98;1.30;;;;;;;;;;4914058;29;20084;-61
2023/04/03 08:51:22;;;;;;;2.33;1.13;;;;;;;;;;4914574;29;20052;-60
2023/04/03 08:53:57;;;;;;;1.38;1.27;;;;;;;;;;4914301;29;20056;-61
2023/04/03 08:56:27;;;;;;;4.03;1.35;;;;;;;;;;4914330;29;20558;-60
2023/04/03 08:58:57;;;;;;;3.22;1.15;;;;;;;;;;4912113;29;20048;-62
2023/04/03 09:01:28;;;;;;;4.72;0.73;;;;;;;;;;4915105;29;20524;-60
2023/04/03 09:03:56;;;;;;;1.67;1.08;;;;;;;;;;4913713;29;20056;-61
2023/04/03 09:06:28;;;;;;;1.58;1.48;;;;;;;;;;4911294;29;20135;-58
2023/04/03 09:09:02;;;;;;;2.35;1.65;;;;;;;;;;4913763;29;20099;-59
2023/04/03 09:11:38;;;;;;;1.13;1.00;;;;;;;;;;4915319;29;20135;-61
2023/04/03 09:14:10;;;;;;;2.20;1.13;;;;;;;;;;4912967;29;20080;-61
2023/04/03 09:16:44;;;;;;;1.73;1.30;;;;;;;;;;4914857;29;20516;-60
2023/04/03 09:19:17;;;;;;;1.47;1.37;;;;;;;;;;4915135;29;20048;-59
2023/04/03 09:21:45;;;;;;;1.63;1.52;;;;;;;;;;4915252;29;20050;-59
2023/04/03 09:24:15;;;;;;;1.25;0.93;;;;;;;;;;4913565;29;20465;-59
2023/04/03 09:26:46;;;;;;;3.17;1.35;;;;;;;;;;4914460;29;20040;-62
2023/04/03 09:29:18;;;;;;;6.32;1.17;;;;;;;;;;4911245;29;20138;-60
2023/04/03 09:31:48;;;;;;;1.20;1.00;;;;;;;;;;4914317;29;20079;-59
2023/04/03 09:34:20;;;;;;;1.77;1.58;;;;;;;;;;4914136;29;20052;-61
2023/04/03 09:36:49;;;;;;;1.33;0.82;;;;;;;;;;4914212;29;20052;-60
2023/04/03 09:39:19;;;;;;;1.88;1.65;;;;;;;;;;4910450;29;20052;-59
2023/04/03 09:41:59;;;;;;;2.08;1.23;;;;;;;;;;4914717;29;20506;-59
2023/04/03 09:44:29;;;;;;;1.45;0.82;;;;;;;;;;4913381;29;20074;-61
2023/04/03 09:46:58;;;;;;;3.50;1.00;;;;;;;;;;4914043;28;20063;-59
2023/04/03 09:49:26;;;;;;;2.38;2.03;;;;;;;;;;4914744;29;20080;-59
2023/04/03 09:51:55;;;;;;;1.63;1.35;;;;;;;;;;4914314;29;20066;-59
2023/04/03 09:54:35;;;;;;;0.90;0.90;;;;;;;;;;4913846;29;20064;-61
2023/04/03 09:57:08;;;;;;;1.05;1.02;;;;;;;;;;4914396;29;20175;-60
2023/04/03 09:59:38;;;;;;;2.28;0.85;;;;;;;;;;4913214;29;20383;-60
2023/04/03 10:02:25;;;;;;;1.08;0.77;;;;;;;;;;4914413;29;20074;-62
2023/04/03 10:04:53;;;;;;;0.88;0.88;;;;;;;;;;4913043;29;20496;-59
2023/04/03 10:07:37;;;;;;;1.95;1.20;;;;;;;;;;4913959;28;20102;-58
2023/04/03 10:10:18;;;;;;;0.50;0.50;;;;;;;;;;4914362;29;20123;-59
2023/04/03 10:12:47;;;;;;;1.40;1.00;;;;;;;;;;4912547;29;20052;-58
2023/04/03 10:15:18;;;;;;;1.58;1.38;;;;;;;;;;4911615;29;20445;-59
2023/04/03 10:18:00;;;;;;;0.73;0.63;;;;;;;;;;4913553;29;20048;-58
2023/04/03 10:20:41;;;;;;;3.25;1.17;;;;;;;;;;4909104;29;20136;-60
2023/04/03 10:23:17;;;;;;;0.52;0.52;;;;;;;;;;4912708;29;20052;-60
2023/04/03 10:25:51;;;;;;;1.65;1.30;;;;;;;;;;4912342;29;20126;-61
2023/04/03 10:28:24;;;;;;;2.10;0.77;;;;;;;;;;4912698;29;20051;-59
2023/04/03 10:30:58;;;;;;;1.58;1.30;;;;;;;;;;4913673;29;20054;-60
2023/04/03 10:33:35;;;;;;;1.02;0.57;;;;;;;;;;4913592;29;20059;-61
2023/04/03 10:36:09;;;;;;;0.73;0.73;;;;;;;;;;4903177;29;20054;-64
2023/04/03 10:38:42;;;;;;;2.45;0.93;;;;;;;;;;4909291;29;20409;-59
2023/04/03 10:41:14;;;;;;;4.45;1.25;;;;;;;;;;4912338;29;20436;-60
2023/04/03 10:43:48;;;;;;;1.80;0.80;;;;;;;;;;4912504;29;20079;-61
2023/04/03 10:46:20;;;;;;;0.40;0.40;;;;;;;;;;4913022;29;20126;-63
2023/04/03 10:48:57;;;;;;;1.38;0.80;;;;;;;;;;4908079;29;20060;-61
2023/04/03 10:51:30;;;;;;;1.33;0.70;;;;;;;;;;4912466;29;20058;-62
2023/04/03 10:54:01;;;;;;;1.40;0.52;;;;;;;;;;4904208;29;20134;-59
2023/04/03 10:56:33;;;;;;;1.38;1.00;;;;;;;;;;4913176;28;20099;-58
2023/04/03 10:59:10;;;;;;;1.13;0.77;;;;;;;;;;4912075;29;20047;-60
2023/04/03 11:01:40;;;;;;;1.08;0.98;;;;;;;;;;4913335;29;20045;-58
2023/04/03 11:04:10;;;;;;;0.90;0.77;;;;;;;;;;4912977;29;20048;-58
2023/04/03 11:06:40;;;;;;;0.88;0.68;;;;;;;;;;4912387;28;20071;-59
2023/04/03 11:09:14;;;;;;;4.65;0.52;;;;;;;;;;4911871;29;20048;-59
2023/04/03 11:11:44;;;;;;;1.10;1.00;;;;;;;;;;4913435;29;20048;-60
2023/04/03 11:14:16;;;;;;;0.60;0.60;;;;;;;;;;4911968;29;20058;-61
2023/04/03 11:16:48;;;;;;;0.93;0.70;;;;;;;;;;4912331;29;20056;-58
2023/04/03 11:19:24;;;;;;;0.55;0.52;;;;;;;;;;4911706;29;20419;-59
2023/04/03 11:21:56;;;;;;;2.22;0.57;;;;;;;;;;4912654;29;20096;-59
2023/04/03 11:24:26;;;;;;;0.80;0.60;;;;;;;;;;4913180;29;20147;-59
2023/04/03 11:26:55;;;;;;;1.23;0.70;;;;;;;;;;4912829;29;20056;-58
2023/04/03 11:29:27;;;;;;;0.90;0.55;;;;;;;;;;4912054;29;20059;-58
2023/04/03 11:32:08;;;;;;;0.80;0.80;;;;;;;;;;4912373;29;20421;-58
2023/04/03 11:34:40;;;;;;;1.05;0.90;;;;;;;;;;4913606;29;20557;-60
2023/04/03 11:37:14;;;;;;;2.53;0.63;;;;;;;;;;4911872;28;20494;-61
2023/04/03 11:39:53;;;;;;;1.10;0.75;;;;;;;;;;4910610;29;20134;-60
2023/04/03 11:42:27;;;;;;;6.00;0.70;;;;;;;;;;4912611;29;20133;-59
2023/04/03 11:45:11;;;;;;;0.65;0.63;;;;;;;;;;4911189;29;20044;-59
2023/04/03 11:47:47;;;;;;;1.58;1.35;;;;;;;;;;4911880;29;20107;-60
2023/04/03 11:50:46;;;;;;;0.73;0.73;;;;;;;;;;4910056;29;20048;-59
2023/04/03 11:53:28;;;;;;;0.47;0.45;;;;;;;;;;4872357;29;20583;-58
2023/04/03 11:56:00;;;;;;;0.25;0.25;;;;;;;;;;4906897;28;20131;-59
2023/04/03 11:58:30;;;;;;;1.60;0.85;;;;;;;;;;4911358;29;20056;-58
2023/04/03 12:01:03;;;;;;;0.40;0.40;;;;;;;;;;4912349;29;20144;-59
2023/04/03 12:03:56;;;;;;;1.75;0.82;;;;;;;;;;4912319;29;20055;-60
2023/04/03 12:06:56;;;;;;;0.20;0.20;;;;;;;;;;4909694;28;20409;-59
2023/04/03 12:09:27;;;;;;;1.08;0.55;;;;;;;;;;4906960;29;20056;-59
2023/04/03 12:11:57;;;;;;;1.40;0.63;;;;;;;;;;4912570;29;20127;-62
2023/04/03 12:14:26;;;;;;;0.52;0.40;;;;;;;;;;4911399;29;20055;-61
2023/04/03 12:16:57;;;;;;;0.73;0.52;;;;;;;;;;4911550;29;20060;-58
2023/04/03 12:19:40;;;;;;;0.40;0.40;;;;;;;;;;4908272;29;20056;-59
2023/04/03 12:22:19;;;;;;;0.73;0.73;;;;;;;;;;4912303;29;20080;-58
2023/04/03 12:24:48;;;;;;;0.40;0.35;;;;;;;;;;4911404;29;20052;-58
2023/04/03 12:27:35;;;;;;;0.40;0.40;;;;;;;;;;4911828;29;20520;-59
2023/04/03 12:30:15;;;;;;;0.25;0.25;;;;;;;;;;4909647;29;20103;-59
2023/04/03 12:32:47;;;;;;;0.22;0.22;;;;;;;;;;4901496;29;20486;-58
2023/04/03 12:35:23;;;;;;;0.75;0.73;;;;;;;;;;4912245;29;20365;-59
2023/04/03 12:37:59;;;;;;;0.40;0.40;;;;;;;;;;4909673;28;20082;-59
2023/04/03 12:40:31;;;;;;;0.80;0.65;;;;;;;;;;4909979;29;20067;-58
2023/04/03 12:43:08;;;;;;;2.83;0.50;;;;;;;;;;4911339;29;20091;-62
2023/04/03 12:45:41;;;;;;;0.80;0.70;;;;;;;;;;4914629;29;20561;-58
2023/04/03 12:48:14;;;;;;;1.58;0.70;;;;;;;;;;4886046;29;20060;-58
2023/04/03 12:50:44;;;;;;;1.38;1.08;;;;;;;;;;4913941;29;20138;-58
2023/04/03 12:53:15;;;;;;;0.28;0.28;;;;;;;;;;4914990;29;20060;-59
2023/04/03 12:55:43;;;;;;;1.98;0.30;;;;;;;;;;4914452;29;20058;-60
2023/04/03 12:58:16;;;;;;;1.20;0.52;;;;;;;;;;4914010;29;20526;-59
2023/04/03 13:00:44;;;;;;;0.70;0.70;;;;;;;;;;4915059;29;20062;-59
2023/04/03 13:03:24;;;;;;;0.20;0.20;;;;;;;;;;4914562;29;20102;-59
2023/04/03 13:06:01;;;;;;;0.60;0.60;;;;;;;;;;4914229;29;20052;-58
2023/04/03 13:08:30;;;;;;;0.52;0.52;;;;;;;;;;4913237;29;20060;-60
2023/04/03 13:11:01;;;;;;;0.30;0.30;;;;;;;;;;4914758;29;20055;-58
2023/04/03 13:13:30;;;;;;;0.40;0.40;;;;;;;;;;4913449;29;20087;-61
2023/04/03 13:15:59;;;;;;;1.13;0.40;;;;;;;;;;4914338;29;20135;-59
2023/04/03 13:18:32;;;;;;;0.30;0.30;;;;;;;;;;4913811;29;20121;-59
2023/04/03 13:21:04;;;;;;;0.52;0.50;;;;;;;;;;4914639;29;20079;-59
2023/04/03 13:23:33;;;;;;;1.40;0.43;;;;;;;;;;4914761;29;20056;-61
2023/04/03 13:26:03;;;;;;;0.30;0.30;;;;;;;;;;4913577;29;20573;-66
2023/04/03 13:28:32;;;;;;;0.40;0.38;;;;;;;;;;4913351;29;20052;-61
2023/04/03 13:31:03;;;;;;;0.45;0.45;;;;;;;;;;4914976;29;20143;-61
2023/04/03 13:33:32;;;;;;;0.22;0.22;;;;;;;;;;4914640;29;20056;-62
2023/04/03 13:36:04;;;;;;;0.20;0.20;;;;;;;;;;4913770;29;20107;-58
2023/04/03 13:38:36;;;;;;;1.38;0.35;;;;;;;;;;4913108;29;20048;-59
2023/04/03 13:41:06;;;;;;;2.58;0.77;;;;;;;;;;4914226;29;20056;-61
2023/04/03 13:43:35;;;;;;;1.33;1.23;;;;;;;;;;4912199;29;20044;-60
2023/04/03 13:46:06;;;;;;;0.40;0.40;;;;;;;;;;4913982;29;20047;-59
2023/04/03 13:48:41;;;;;;;0.40;0.40;;;;;;;;;;4914440;29;20409;-60
2023/04/03 13:51:20;;;;;;;0.40;0.40;;;;;;;;;;4913577;29;20501;-61
2023/04/03 13:53:50;;;;;;;0.30;0.30;;;;;;;;;;4913281;29;20433;-59
2023/04/03 13:56:21;;;;;;;0.30;0.30;;;;;;;;;;4913195;29;20070;-58
2023/04/03 13:58:57;;;;;;;2.05;0.45;;;;;;;;;;4913416;29;20135;-60
2023/04/03 14:01:26;;;;;;;0.30;0.30;;;;;;;;;;4913260;29;20139;-58
2023/04/03 14:03:57;;;;;;;1.58;0.70;;;;;;;;;;4911703;29;20482;-60
2023/04/03 14:06:27;;;;;;;1.30;0.75;;;;;;;;;;4912193;29;20493;-64
2023/04/03 14:08:55;;;;;;;0.30;0.30;;;;;;;;;;4912876;29;20131;-61
2023/04/03 14:11:27;;;;;;;1.67;0.68;;;;;;;;;;4896185;29;20055;-58
2023/04/03 14:13:56;;;;;;;0.20;0.20;;;;;;;;;;4909956;29;20056;-60
2023/04/03 14:16:25;;;;;;;0.43;0.38;;;;;;;;;;4909527;29;20052;-58
2023/04/03 14:18:53;;;;;;;0.68;0.68;;;;;;;;;;4912096;29;20064;-58
2023/04/03 14:21:22;;;;;;;0.38;0.38;;;;;;;;;;4912697;29;20515;-57
2023/04/03 14:23:52;;;;;;;0.57;0.43;;;;;;;;;;4912955;29;20561;-59
2023/04/03 14:26:22;;;;;;;0.20;0.20;;;;;;;;;;4912216;29;20116;-58
2023/04/03 14:28:52;;;;;;;0.30;0.25;;;;;;;;;;4911827;29;20048;-61
2023/04/03 14:31:21;;;;;;;2.05;0.80;;;;;;;;;;4913080;29;20106;-59
2023/04/03 14:33:50;;;;;;;0.45;0.35;;;;;;;;;;4913412;29;20056;-59
2023/04/03 14:36:21;;;;;;;0.63;0.55;;;;;;;;;;4912331;29;20048;-58
2023/04/03 14:38:50;;;;;;;0.63;0.32;;;;;;;;;;4907258;29;20048;-60
2023/04/03 14:41:23;;;;;;;0.40;0.35;;;;;;;;;;4912761;29;20048;-58
2023/04/03 14:43:51;;;;;;;0.35;0.35;;;;;;;;;;4911873;29;20115;-58
2023/04/03 14:46:23;;;;;;;1.77;0.73;;;;;;;;;;4912560;29;20071;-59
2023/04/03 14:48:56;;;;;;;0.20;0.20;;;;;;;;;;4912814;29;20426;-64
2023/04/03 14:51:24;;;;;;;0.40;0.10;;;;;;;;;;4906858;29;20127;-58
2023/04/03 14:53:53;;;;;;;0.40;0.40;;;;;;;;;;4902706;29;20057;-58
2023/04/03 14:56:23;;;;;;;0.25;0.25;;;;;;;;;;4911986;29;20565;-58
2023/04/03 14:58:54;;;;;;;0.43;0.30;;;;;;;;;;4910815;29;20043;-58
2023/04/03 15:01:23;;;;;;;0.30;0.20;;;;;;;;;;4911510;29;20524;-59
2023/04/03 15:03:51;;;;;;;0.28;0.28;;;;;;;;;;4910540;29;20577;-60